WARM SPRINGS (USACE) (WRS)

Elevation: 440' · RUSSIAN R basin · Operator: US Army Corps of Engineers

Provisional data, subject to change.
Query executed Thursday at 13:22:27   clock

Select a sensor type for a plot of data.
Note: Reservoir Flows are daily averages.

Earlier

Date RES ELE    STORAGE    RES CHG    TOC STO    ABV TOC    OUTFLOW    INFLOW    PPT INC    TEMP MN    TEMP MX    EVP PAN   
 FEET   AF   AF   AF   AF   CFS   CFS   INCHES   DEG F   DEG F   INCHES  
08/31/2016 440.96 219357 -269 245000 -25643 98 -22 0.00 11 34 0.17
09/01/2016 440.88 219161 -196 245000 -25839 98 13 0.00 10 32 0.15
09/02/2016 440.77 218892 -269 245000 -26108 98 -22 0.00 17 35 0.17
09/03/2016 440.68 218672 -220 245000 -26328 97 1 0.00 16 33 0.16
09/04/2016 440.58 218428 -244 245000 -26572 97 -12 0.00 14 32 0.15
09/05/2016 440.49 218208 -220 245000 -26792 97 -1 0.00 9 32 0.14
09/06/2016 440.40 217988 -220 245000 -27012 97 0 0.02 16 36 0.16
09/07/2016 440.30 217745 -243 245000 -27255 97 -11 0.01 17 39 0.16
09/08/2016 440.20 217501 -244 245000 -27499 98 -14 0.00 10 28 0.12
09/09/2016 440.11 217282 -219 245000 -27718 99 -1 0.00 11 30 0.13
09/10/2016 440.02 217063 -219 245000 -27937 98 -1 0.00 11 30 0.13
09/11/2016 439.94 216869 -194 245000 -28131 99 10 0.00 12 24 0.10
09/12/2016 439.86 216674 -195 245000 -28326 97 8 0.00 11 24 0.11
09/13/2016 439.76 216432 -242 245000 -28568 95 -17 0.00 11 26 0.12
09/14/2016 439.68 216237 -195 245000 -28763 96 7 0.00 7 30 0.11
09/15/2016 439.58 215995 -242 245000 -29005 99 -13 0.00 7 30 0.11
09/16/2016 439.49 215777 -218 245000 -29223 101 2 0.00 8 32 0.12
09/17/2016 439.42 215607 -170 245000 -29393 101 27 0.00 8 35 0.13
09/18/2016 439.33 215390 -217 245000 -29610 102 6 0.03 11 40 0.15
09/19/2016 439.23 215148 -242 245000 -29852 103 -6 0.01 16 39 0.15
09/20/2016 439.14 214930 -218 245000 -30070 103 4 0.00 9 34 0.12
09/21/2016 439.04 214689 -241 245000 -30311 103 -7 0.00 10 26 0.13
09/22/2016 438.92 214399 -290 245000 -30601 103 -31 0.00 13 27 0.13
09/23/2016 438.83 214183 -216 245000 -30817 103 6 0.00 12 29 0.13
09/24/2016 438.75 213990 -193 245000 -31010 103 17 0.02 16 37 0.13
09/25/2016 438.65 213749 -241 245000 -31251 102 -5 0.02 16 39 0.16
09/26/2016 438.57 213557 -192 245000 -31443 103 18 0.00 13 39 0.13
09/27/2016 438.46 213292 -265 245000 -31708 103 -19 0.00 12 38 0.13
09/28/2016 438.37 213076 -216 245000 -31924 103 3 0.00 8 31 0.10
09/29/2016 -- -- -- -- -- -- -- -- -- -- --

Later | Latest

Warning! This data is preliminary and subject to revision.

Show WRS Map | Plot WRS Data | 1 Month WRS Data | Real-Time WRS Data | WRS Info